Time;durP1;ratioP1;P1;durP2;ratioP2;P2;SDS_P1;SDS_P2;PMS_P1;PMS_P2;Temp;Humidity;BMP_temperature;BMP_pressure;BME280_temperature;BME280_humidity;BME280_pressure;Samples;Min_cycle;Max_cycle;Signal;HPM_P1;HPM_P2
2020/12/19 00:01:29;;;;;;;33.67;18.42;;;0.50;99.90;;;;;;5070625;28;20473;-53
2020/12/19 00:03:56;;;;;;;24.77;15.53;;;0.60;99.90;;;;;;5072348;28;20205;-53
2020/12/19 00:06:23;;;;;;;37.93;15.90;;;0.70;99.90;;;;;;5072733;28;20831;-53
2020/12/19 00:08:50;;;;;;;26.60;14.70;;;0.90;99.90;;;;;;5072125;28;20459;-53
2020/12/19 00:11:17;;;;;;;25.77;14.20;;;0.80;99.90;;;;;;5072400;28;20819;-53
2020/12/19 00:13:43;;;;;;;30.20;14.17;;;0.80;99.90;;;;;;5066711;28;20452;-53
2020/12/19 00:16:14;;;;;;;29.40;14.87;;;0.90;99.90;;;;;;5067143;28;20509;-52
2020/12/19 00:18:41;;;;;;;30.07;14.10;;;0.80;99.90;;;;;;5089403;28;20520;-53
2020/12/19 00:21:07;;;;;;;24.00;14.00;;;1.00;99.90;;;;;;5071965;28;20455;-53
2020/12/19 00:23:35;;;;;;;25.00;13.47;;;0.90;99.90;;;;;;5072559;28;20483;-53
2020/12/19 00:26:02;;;;;;;29.63;13.50;;;0.90;99.90;;;;;;5072273;28;20978;-53
2020/12/19 00:28:28;;;;;;;25.47;13.90;;;0.90;99.90;;;;;;5070741;28;20477;-53
2020/12/19 00:30:55;;;;;;;24.63;14.40;;;1.00;99.90;;;;;;5072023;28;20453;-53
2020/12/19 00:33:22;;;;;;;21.80;13.70;;;1.00;99.90;;;;;;5071931;28;20449;-53
2020/12/19 00:35:48;;;;;;;23.57;13.33;;;1.10;99.90;;;;;;5072610;28;20447;-53
2020/12/19 00:38:15;;;;;;;31.00;14.63;;;1.10;99.90;;;;;;5072424;28;20485;-53
2020/12/19 00:40:42;;;;;;;26.10;14.43;;;1.20;99.90;;;;;;5072582;28;20450;-53
2020/12/19 00:43:09;;;;;;;25.97;13.67;;;1.00;99.90;;;;;;5071499;28;20848;-53
2020/12/19 00:45:35;;;;;;;24.90;13.23;;;1.10;99.90;;;;;;5072429;28;20446;-53
2020/12/19 00:48:02;;;;;;;23.83;13.50;;;1.20;99.90;;;;;;5072365;28;20471;-53
2020/12/19 00:50:28;;;;;;;30.40;15.03;;;1.20;99.90;;;;;;5072295;28;20473;-53
2020/12/19 00:52:55;;;;;;;27.77;14.67;;;1.30;99.90;;;;;;5072176;28;20447;-53
2020/12/19 00:55:21;;;;;;;24.33;13.47;;;1.30;99.90;;;;;;5072344;28;20446;-53
2020/12/19 00:57:49;;;;;;;24.80;13.90;;;1.30;99.90;;;;;;5070190;28;20578;-53
2020/12/19 01:00:15;;;;;;;25.77;13.50;;;1.40;99.90;;;;;;5071915;28;20451;-53
2020/12/19 01:02:42;;;;;;;21.83;13.13;;;1.40;99.90;;;;;;5071877;28;20458;-53
2020/12/19 01:05:10;;;;;;;23.67;13.40;;;1.30;99.90;;;;;;5071844;28;20454;-53
2020/12/19 01:07:36;;;;;;;27.87;13.80;;;1.20;99.90;;;;;;5072219;28;20500;-53
2020/12/19 01:10:05;;;;;;;22.27;13.40;;;1.10;99.90;;;;;;5071999;28;20549;-53
2020/12/19 01:12:31;;;;;;;22.83;12.77;;;1.20;99.90;;;;;;5071194;28;20454;-53
2020/12/19 01:14:59;;;;;;;25.27;13.57;;;1.30;99.90;;;;;;5051951;28;20942;-53
2020/12/19 01:17:25;;;;;;;22.70;13.60;;;1.30;99.90;;;;;;5056062;28;20470;-53
2020/12/19 01:19:52;;;;;;;28.70;13.70;;;1.30;99.90;;;;;;5071213;28;20858;-53
2020/12/19 01:22:18;;;;;;;26.37;14.00;;;1.30;99.90;;;;;;5071943;28;20454;-53
2020/12/19 01:24:45;;;;;;;29.30;14.60;;;1.30;99.90;;;;;;5071704;28;20461;-53
2020/12/19 01:27:11;;;;;;;33.80;15.00;;;1.30;99.90;;;;;;5071305;28;20455;-53
2020/12/19 01:29:38;;;;;;;26.73;14.07;;;1.20;99.90;;;;;;5070397;28;20545;-53
2020/12/19 01:32:05;;;;;;;22.20;13.10;;;1.20;99.90;;;;;;5057656;28;20454;-52
2020/12/19 01:34:32;;;;;;;23.17;13.10;;;1.30;99.90;;;;;;5051774;28;20452;-53
2020/12/19 01:36:58;;;;;;;25.63;14.30;;;1.40;99.90;;;;;;5065964;28;20458;-52
2020/12/19 01:39:25;;;;;;;27.70;13.37;;;1.40;99.90;;;;;;5071398;28;20535;-53
2020/12/19 01:41:53;;;;;;;27.97;13.33;;;1.40;99.90;;;;;;5071182;28;20455;-53
2020/12/19 01:44:19;;;;;;;27.47;12.50;;;1.40;99.90;;;;;;5053629;28;20444;-53
2020/12/19 01:46:55;;;;;;;22.20;11.70;;;1.20;99.90;;;;;;5057264;28;20443;-53
2020/12/19 01:49:25;;;;;;;21.50;12.87;;;1.20;99.90;;;;;;5071262;28;20441;-53
2020/12/19 01:51:53;;;;;;;24.10;12.90;;;1.10;99.90;;;;;;5070982;28;20508;-53
2020/12/19 01:54:21;;;;;;;22.90;12.43;;;1.10;99.90;;;;;;5070970;28;20457;-53
2020/12/19 01:56:53;;;;;;;23.73;12.60;;;1.10;99.90;;;;;;5070345;28;20533;-53
2020/12/19 01:59:21;;;;;;;28.50;13.00;;;1.20;99.90;;;;;;5052982;28;20494;-53
2020/12/19 02:15:16;;;;;;;25.00;13.00;;;1.30;99.90;;;;;;5051029;28;20557;-53
2020/12/19 02:17:42;;;;;;;24.70;13.13;;;1.40;99.90;;;;;;5064643;28;20462;-53
2020/12/19 02:20:08;;;;;;;29.43;13.67;;;1.40;99.90;;;;;;5062906;28;20450;-53
2020/12/19 02:22:35;;;;;;;23.17;12.77;;;1.40;99.90;;;;;;5067494;28;20454;-53
2020/12/19 02:25:03;;;;;;;27.10;12.80;;;1.40;99.90;;;;;;5070457;28;20455;-52
2020/12/19 02:27:29;;;;;;;22.20;12.27;;;1.40;99.90;;;;;;5066616;28;20491;-53
2020/12/19 02:29:56;;;;;;;22.13;12.63;;;1.40;99.90;;;;;;5050600;28;20451;-53
2020/12/19 02:32:22;;;;;;;25.77;13.43;;;1.40;99.90;;;;;;5068070;28;20516;-53
2020/12/19 02:34:48;;;;;;;27.00;14.03;;;1.40;99.90;;;;;;5070527;28;21017;-53
2020/12/19 02:37:15;;;;;;;26.33;13.17;;;1.60;99.90;;;;;;5069477;28;20504;-52
2020/12/19 02:39:41;;;;;;;26.93;15.10;;;1.50;99.90;;;;;;5068955;28;20481;-52
2020/12/19 02:42:09;;;;;;;29.80;13.30;;;1.30;99.90;;;;;;5063074;28;20451;-53
2020/12/19 02:44:35;;;;;;;27.17;14.07;;;1.20;99.90;;;;;;5050568;28;20451;-53
2020/12/19 02:47:02;;;;;;;21.10;12.20;;;1.20;99.90;;;;;;5050438;28;20463;-52
2020/12/19 02:49:28;;;;;;;27.53;13.27;;;1.20;99.90;;;;;;5051508;28;20524;-53
2020/12/19 02:51:55;;;;;;;25.87;13.23;;;1.30;99.90;;;;;;5065949;28;20952;-53
2020/12/19 02:54:21;;;;;;;29.93;14.30;;;1.30;99.90;;;;;;5069704;28;20960;-53
2020/12/19 02:56:48;;;;;;;29.60;15.30;;;1.20;99.90;;;;;;5072169;28;20450;-53
2020/12/19 02:59:15;;;;;;;26.33;14.10;;;1.20;99.90;;;;;;5074133;28;20489;-52
2020/12/19 03:01:41;;;;;;;30.93;13.73;;;1.30;99.90;;;;;;5074293;28;20515;-53
2020/12/19 03:04:08;;;;;;;28.57;14.20;;;1.20;99.90;;;;;;5065875;28;21042;-52
2020/12/19 03:06:34;;;;;;;28.13;14.00;;;1.30;99.90;;;;;;5074269;28;20462;-52
2020/12/19 03:09:01;;;;;;;32.97;13.30;;;1.20;99.90;;;;;;5073330;28;20470;-52
2020/12/19 03:11:27;;;;;;;19.47;11.23;;;1.20;99.90;;;;;;5074122;28;20450;-53
2020/12/19 03:13:54;;;;;;;29.97;12.93;;;1.10;99.90;;;;;;5073886;28;20450;-53
2020/12/19 03:16:21;;;;;;;24.90;12.30;;;1.10;99.90;;;;;;5073664;28;20816;-53
2020/12/19 03:18:48;;;;;;;24.83;11.40;;;1.10;99.90;;;;;;5072735;28;20531;-53
2020/12/19 03:21:14;;;;;;;29.20;11.67;;;1.20;99.90;;;;;;5073702;28;20472;-53
2020/12/19 03:23:41;;;;;;;25.77;12.03;;;1.20;99.90;;;;;;5073516;28;20449;-53
2020/12/19 03:26:07;;;;;;;20.53;11.50;;;1.20;99.90;;;;;;5074033;28;20476;-53
2020/12/19 03:28:34;;;;;;;24.40;11.80;;;1.30;99.90;;;;;;5073503;28;20505;-53
2020/12/19 03:31:00;;;;;;;23.37;12.80;;;1.30;99.90;;;;;;5073503;28;20447;-53
2020/12/19 03:33:27;;;;;;;24.90;12.50;;;1.30;99.90;;;;;;5073746;28;20453;-53
2020/12/19 03:35:54;;;;;;;22.27;12.97;;;1.40;99.90;;;;;;5073674;28;20534;-53
2020/12/19 03:38:20;;;;;;;21.83;13.00;;;1.30;99.90;;;;;;5071296;28;20489;-53
2020/12/19 03:40:47;;;;;;;26.97;13.47;;;1.30;99.90;;;;;;5073383;28;20969;-53
2020/12/19 03:43:13;;;;;;;30.63;12.13;;;1.40;99.90;;;;;;5073511;28;21000;-53
2020/12/19 03:45:40;;;;;;;21.20;11.23;;;1.30;99.90;;;;;;5073055;28;20837;-53
2020/12/19 03:48:06;;;;;;;24.50;12.63;;;1.40;99.90;;;;;;5073348;28;21150;-53
2020/12/19 03:50:33;;;;;;;21.27;11.67;;;1.40;99.90;;;;;;5072476;28;20447;-53
2020/12/19 03:53:00;;;;;;;18.10;10.47;;;1.50;99.90;;;;;;5073106;28;20446;-52
2020/12/19 03:55:26;;;;;;;19.97;10.30;;;1.60;99.90;;;;;;5072037;28;20457;-53
2020/12/19 03:57:53;;;;;;;22.40;11.50;;;1.60;99.90;;;;;;5073268;28;20476;-53
2020/12/19 04:00:19;;;;;;;18.57;10.27;;;1.60;99.90;;;;;;5073217;28;20454;-53
2020/12/19 04:02:45;;;;;;;15.90;10.70;;;1.60;99.90;;;;;;5072985;28;20516;-52
2020/12/19 04:05:12;;;;;;;25.87;11.57;;;1.50;99.90;;;;;;5072801;28;21029;-52
2020/12/19 04:07:40;;;;;;;18.83;10.90;;;1.50;99.90;;;;;;5071475;28;21237;-52
2020/12/19 04:10:08;;;;;;;24.77;11.83;;;1.40;99.90;;;;;;5064014;28;20978;-53
2020/12/19 04:12:35;;;;;;;32.17;12.03;;;1.30;99.90;;;;;;5053122;28;20505;-52
2020/12/19 04:15:02;;;;;;;24.53;11.60;;;1.20;99.90;;;;;;5052880;28;20466;-52
2020/12/19 04:17:29;;;;;;;20.07;11.50;;;1.20;99.90;;;;;;5052831;28;21095;-52
2020/12/19 04:19:55;;;;;;;24.37;12.27;;;1.30;99.90;;;;;;5070740;28;20482;-53
2020/12/19 04:22:22;;;;;;;26.00;11.70;;;1.20;99.90;;;;;;5072449;28;20457;-53
2020/12/19 04:24:49;;;;;;;18.00;10.43;;;1.20;99.90;;;;;;5072514;28;20483;-53
2020/12/19 04:27:15;;;;;;;29.43;12.10;;;1.10;99.90;;;;;;5072947;28;20473;-52
2020/12/19 04:29:42;;;;;;;24.20;12.80;;;1.00;99.90;;;;;;5072850;28;20472;-53
2020/12/19 04:32:08;;;;;;;20.73;11.30;;;1.00;99.90;;;;;;5072672;28;20598;-53
2020/12/19 04:34:35;;;;;;;23.30;12.60;;;1.00;99.90;;;;;;5072184;28;20453;-53
2020/12/19 04:37:01;;;;;;;27.37;11.30;;;1.20;99.90;;;;;;5072399;28;20454;-52
2020/12/19 04:39:28;;;;;;;25.77;12.73;;;1.10;99.90;;;;;;5072182;28;20491;-52
2020/12/19 04:41:55;;;;;;;35.70;12.43;;;1.00;99.90;;;;;;5072509;28;20450;-53
2020/12/19 04:44:22;;;;;;;21.87;11.97;;;1.10;99.90;;;;;;5070617;28;20947;-52
2020/12/19 04:46:50;;;;;;;31.80;13.30;;;1.20;99.90;;;;;;5071931;28;21002;-53
2020/12/19 04:49:17;;;;;;;22.83;13.00;;;1.00;99.90;;;;;;5072052;28;20880;-53
2020/12/19 04:51:44;;;;;;;24.37;12.53;;;1.00;99.90;;;;;;5071850;28;20473;-53
2020/12/19 04:54:11;;;;;;;28.63;13.03;;;1.00;99.90;;;;;;5072374;28;20425;-52
2020/12/19 04:56:38;;;;;;;26.00;13.50;;;1.00;99.90;;;;;;5071996;28;20454;-53
2020/12/19 04:59:06;;;;;;;25.30;12.57;;;1.00;99.90;;;;;;5071791;28;20493;-53
2020/12/19 05:01:32;;;;;;;25.67;12.57;;;1.00;99.90;;;;;;5072166;28;20421;-52
2020/12/19 05:03:59;;;;;;;22.20;11.03;;;1.00;99.90;;;;;;5072083;28;21031;-53
2020/12/19 05:06:30;;;;;;;30.80;12.70;;;1.10;99.90;;;;;;5071506;28;20486;-53
2020/12/19 05:08:59;;;;;;;25.27;12.60;;;1.00;99.90;;;;;;5071729;28;20462;-53
2020/12/19 05:11:27;;;;;;;30.70;11.87;;;1.10;99.90;;;;;;5072251;28;20465;-52
2020/12/19 05:13:53;;;;;;;38.63;12.20;;;1.00;99.90;;;;;;5072044;28;20441;-52
2020/12/19 05:16:21;;;;;;;18.93;10.37;;;0.90;99.90;;;;;;5071353;28;20450;-52
2020/12/19 05:18:47;;;;;;;32.67;12.07;;;0.90;99.90;;;;;;5071085;28;20489;-53
2020/12/19 05:21:15;;;;;;;19.27;11.00;;;0.80;99.90;;;;;;5059575;28;20574;-52
2020/12/19 05:23:43;;;;;;;22.63;11.33;;;0.80;99.90;;;;;;5051626;28;20994;-53
2020/12/19 05:26:11;;;;;;;25.93;11.90;;;0.90;99.90;;;;;;5068735;28;20450;-52
2020/12/19 05:28:40;;;;;;;21.17;11.30;;;1.20;99.90;;;;;;5065413;28;20474;-52
2020/12/19 05:31:07;;;;;;;30.73;11.70;;;1.20;99.90;;;;;;5071547;28;20537;-53
2020/12/19 05:33:35;;;;;;;29.27;11.83;;;1.20;99.90;;;;;;5071547;28;20450;-53
2020/12/19 05:36:02;;;;;;;22.67;11.97;;;1.20;99.90;;;;;;5071080;28;20946;-52
2020/12/19 05:38:30;;;;;;;18.97;10.37;;;1.20;99.90;;;;;;5070097;28;21009;-52
2020/12/19 05:40:57;;;;;;;26.03;11.13;;;1.40;99.90;;;;;;5064013;28;20459;-52
2020/12/19 05:43:24;;;;;;;25.67;10.63;;;1.40;99.90;;;;;;5070833;28;20501;-52
2020/12/19 05:45:51;;;;;;;20.37;10.40;;;1.30;99.90;;;;;;5071233;28;20442;-52
2020/12/19 05:48:17;;;;;;;19.23;10.40;;;1.30;99.90;;;;;;5071005;28;20830;-53
2020/12/19 05:50:45;;;;;;;17.30;9.80;;;1.30;99.90;;;;;;5070366;28;20458;-53
2020/12/19 05:53:13;;;;;;;15.70;9.17;;;1.30;99.90;;;;;;5071050;28;20453;-53
2020/12/19 05:55:39;;;;;;;27.50;10.60;;;1.30;99.90;;;;;;5070194;28;20453;-52
2020/12/19 05:58:06;;;;;;;16.10;9.10;;;1.20;99.90;;;;;;5070309;28;20474;-53
2020/12/19 06:00:34;;;;;;;21.00;9.83;;;1.30;99.90;;;;;;5070221;28;20454;-52
2020/12/19 06:03:03;;;;;;;14.73;8.33;;;1.40;99.90;;;;;;5070899;28;20487;-52
2020/12/19 06:05:32;;;;;;;16.10;8.47;;;1.20;99.90;;;;;;5070910;28;20447;-52
2020/12/19 06:08:01;;;;;;;15.83;8.37;;;1.30;99.90;;;;;;5075111;28;20474;-52
2020/12/19 06:10:28;;;;;;;18.77;9.30;;;1.30;99.90;;;;;;5076587;28;20788;-52
2020/12/19 06:13:00;;;;;;;19.77;9.80;;;1.30;99.90;;;;;;5070912;28;20447;-52
2020/12/19 06:15:50;;;;;;;16.37;8.70;;;1.20;99.90;;;;;;5070755;28;20447;-52
2020/12/19 06:18:27;;;;;;;19.40;9.80;;;1.40;99.90;;;;;;5070518;28;20561;-52
2020/12/19 06:20:54;;;;;;;20.40;10.03;;;1.20;99.90;;;;;;5070437;28;20962;-52
2020/12/19 06:23:23;;;;;;;22.37;10.17;;;1.30;99.90;;;;;;5070568;28;20454;-52
2020/12/19 06:25:49;;;;;;;17.70;10.70;;;1.40;99.90;;;;;;5066071;28;20455;-52
2020/12/19 06:28:47;;;;;;;18.70;9.80;;;1.40;99.90;;;;;;5070786;28;20855;-52
2020/12/19 06:31:16;;;;;;;17.43;9.23;;;1.50;99.90;;;;;;5069750;28;20861;-52
2020/12/19 06:33:46;;;;;;;17.20;9.20;;;1.50;99.90;;;;;;5070494;28;20446;-52
2020/12/19 06:36:24;;;;;;;18.00;10.00;;;1.50;99.90;;;;;;5070729;28;20446;-53
2020/12/19 06:38:54;;;;;;;25.17;10.27;;;1.60;99.90;;;;;;5069185;28;20478;-52
2020/12/19 06:41:41;;;;;;;24.73;9.60;;;1.60;99.90;;;;;;5050366;28;20459;-52
2020/12/19 06:44:08;;;;;;;18.50;9.50;;;1.50;99.90;;;;;;5050422;28;20473;-52
2020/12/19 06:46:35;;;;;;;15.40;9.50;;;1.20;99.90;;;;;;5050480;28;20446;-52
2020/12/19 06:49:28;;;;;;;14.83;9.57;;;1.30;99.90;;;;;;5050157;28;20464;-52
2020/12/19 06:51:59;;;;;;;17.43;8.40;;;1.30;99.90;;;;;;5057815;28;20442;-52
2020/12/19 06:54:31;;;;;;;18.07;8.50;;;1.40;99.90;;;;;;5062449;28;20462;-52
2020/12/19 06:56:58;;;;;;;21.40;8.10;;;1.50;99.90;;;;;;5050328;28;20460;-53
2020/12/19 06:59:26;;;;;;;19.33;9.30;;;1.50;99.90;;;;;;5050435;28;20490;-52
2020/12/19 07:01:52;;;;;;;22.57;9.87;;;1.50;99.90;;;;;;5050976;28;20452;-52
2020/12/19 07:04:32;;;;;;;19.27;10.23;;;1.40;99.90;;;;;;5069709;28;20469;-52
2020/12/19 07:07:03;;;;;;;14.83;8.00;;;1.50;99.90;;;;;;5070238;28;21020;-52
2020/12/19 07:09:30;;;;;;;22.33;9.30;;;1.60;99.90;;;;;;5062197;28;20451;-52
2020/12/19 07:11:57;;;;;;;19.17;10.23;;;1.40;99.90;;;;;;5090664;28;20441;-52
2020/12/19 07:14:23;;;;;;;15.60;9.97;;;1.40;99.90;;;;;;5082070;28;20495;-52
2020/12/19 07:16:51;;;;;;;22.73;10.30;;;1.50;99.90;;;;;;5070247;28;20551;-52
2020/12/19 07:19:25;;;;;;;23.37;12.17;;;1.40;99.90;;;;;;5069784;28;20482;-52
2020/12/19 07:21:56;;;;;;;21.93;10.57;;;1.30;99.90;;;;;;5069548;28;20456;-52
2020/12/19 07:24:23;;;;;;;23.60;10.87;;;1.30;99.90;;;;;;5069552;28;20451;-52
2020/12/19 07:26:51;;;;;;;25.87;11.40;;;1.40;99.90;;;;;;5070120;28;20453;-52
2020/12/19 07:29:20;;;;;;;23.70;11.80;;;1.50;99.90;;;;;;5069748;28;20475;-52
2020/12/19 07:31:51;;;;;;;23.63;10.67;;;1.40;99.90;;;;;;5070039;28;20452;-52
2020/12/19 07:34:20;;;;;;;26.20;11.40;;;1.40;99.90;;;;;;5069646;28;20455;-52
2020/12/19 07:36:48;;;;;;;28.17;11.90;;;1.40;99.90;;;;;;5069566;28;20446;-52
2020/12/19 07:39:16;;;;;;;22.87;11.03;;;1.50;99.90;;;;;;5060283;28;20474;-53
2020/12/19 07:41:44;;;;;;;19.23;10.60;;;1.60;99.90;;;;;;5059127;28;20853;-52
2020/12/19 07:44:18;;;;;;;20.63;10.43;;;1.60;99.90;;;;;;5053560;28;20478;-52
2020/12/19 07:46:53;;;;;;;22.23;8.90;;;1.60;99.90;;;;;;5072221;28;20448;-52
2020/12/19 07:49:31;;;;;;;18.20;9.43;;;1.50;99.90;;;;;;5072793;28;20855;-53
2020/12/19 07:52:22;;;;;;;18.83;10.20;;;1.50;99.90;;;;;;5072820;28;20519;-52
2020/12/19 07:54:59;;;;;;;23.47;9.30;;;1.30;99.90;;;;;;5052383;28;20451;-53
2020/12/19 07:57:27;;;;;;;22.70;9.90;;;1.30;99.90;;;;;;5073381;28;20852;-52
2020/12/19 07:59:54;;;;;;;19.03;9.80;;;1.10;99.90;;;;;;5073032;28;20531;-53
2020/12/19 08:02:22;;;;;;;21.00;9.90;;;1.30;99.90;;;;;;5072838;28;20450;-53
2020/12/19 08:04:50;;;;;;;23.00;11.37;;;1.20;99.90;;;;;;5073501;28;20450;-52
2020/12/19 08:07:18;;;;;;;22.03;11.70;;;1.10;99.90;;;;;;5072371;28;21033;-53
2020/12/19 08:09:44;;;;;;;23.10;10.90;;;1.10;99.90;;;;;;5060533;28;20537;-52
2020/12/19 08:12:11;;;;;;;19.77;9.03;;;1.10;99.90;;;;;;5073268;28;20456;-52
2020/12/19 08:14:40;;;;;;;13.57;8.33;;;1.00;99.90;;;;;;5072902;28;20450;-52
2020/12/19 08:17:14;;;;;;;14.57;8.70;;;1.10;99.90;;;;;;5072167;28;20454;-52
2020/12/19 08:19:44;;;;;;;16.20;8.93;;;1.10;99.90;;;;;;5072692;28;20476;-52
2020/12/19 08:22:12;;;;;;;13.40;8.20;;;1.30;99.90;;;;;;5072208;28;20455;-52
2020/12/19 08:24:38;;;;;;;17.23;9.87;;;1.50;99.90;;;;;;5071210;28;20974;-53
2020/12/19 08:27:27;;;;;;;20.40;9.50;;;1.40;99.90;;;;;;5072445;28;20507;-52
2020/12/19 08:30:10;;;;;;;19.30;8.90;;;1.40;99.90;;;;;;5072492;28;20883;-52
2020/12/19 08:32:41;;;;;;;23.20;10.23;;;1.30;99.90;;;;;;5072233;28;20973;-53
2020/12/19 08:35:08;;;;;;;20.30;10.10;;;1.30;99.90;;;;;;5072803;28;21016;-52
2020/12/19 08:37:34;;;;;;;17.27;9.97;;;1.40;99.90;;;;;;5070053;28;21014;-52
2020/12/19 08:40:13;;;;;;;17.40;9.83;;;1.40;99.90;;;;;;5071222;28;20485;-52
2020/12/19 08:42:40;;;;;;;22.93;11.23;;;1.60;99.90;;;;;;5070800;28;20451;-52
2020/12/19 08:45:24;;;;;;;22.20;10.30;;;1.50;99.90;;;;;;5072169;28;20873;-52
2020/12/19 08:47:54;;;;;;;18.67;9.77;;;1.60;99.90;;;;;;5071672;28;20474;-52
2020/12/19 08:50:24;;;;;;;23.10;11.80;;;1.50;99.90;;;;;;5071746;28;20852;-52
2020/12/19 08:53:08;;;;;;;25.33;11.67;;;1.40;99.90;;;;;;5071531;28;20461;-52
2020/12/19 08:55:35;;;;;;;22.47;11.40;;;1.40;99.90;;;;;;5070691;28;20453;-52
2020/12/19 08:58:02;;;;;;;25.27;11.30;;;1.50;99.90;;;;;;5072115;28;20478;-52
2020/12/19 09:00:36;;;;;;;21.33;11.03;;;1.60;99.90;;;;;;5070893;28;20536;-52
2020/12/19 09:03:07;;;;;;;21.17;11.73;;;1.50;99.90;;;;;;5071984;28;20455;-52
2020/12/19 09:05:36;;;;;;;19.60;10.83;;;1.60;99.90;;;;;;5072651;28;20446;-52
2020/12/19 09:08:03;;;;;;;22.67;11.90;;;1.70;99.90;;;;;;5071207;28;20542;-52
2020/12/19 09:10:31;;;;;;;20.33;11.13;;;1.60;99.90;;;;;;5071875;28;20520;-52
2020/12/19 09:13:15;;;;;;;18.37;10.30;;;1.70;99.90;;;;;;5071816;28;20509;-52
2020/12/19 09:15:43;;;;;;;18.67;10.03;;;1.70;99.90;;;;;;5071154;28;20539;-52
2020/12/19 09:18:19;;;;;;;17.37;10.53;;;1.70;99.90;;;;;;5071629;28;20478;-52
2020/12/19 09:20:50;;;;;;;24.67;11.20;;;2.00;99.90;;;;;;5071112;28;20474;-52
2020/12/19 09:23:17;;;;;;;19.50;11.10;;;1.90;99.90;;;;;;5070805;28;20454;-52
2020/12/19 09:25:43;;;;;;;30.47;11.70;;;1.80;99.90;;;;;;5071847;28;20443;-52
2020/12/19 09:28:10;;;;;;;17.77;10.17;;;1.90;99.90;;;;;;5071265;28;20490;-52
2020/12/19 09:30:36;;;;;;;25.13;11.10;;;2.00;99.90;;;;;;5069974;28;20963;-52
2020/12/19 09:33:03;;;;;;;59.83;11.17;;;2.10;99.90;;;;;;5071289;28;20457;-52
2020/12/19 09:35:30;;;;;;;24.03;9.83;;;2.00;99.90;;;;;;5070391;28;20446;-52
2020/12/19 09:37:57;;;;;;;25.60;11.00;;;1.70;99.90;;;;;;5070704;28;20471;-52
2020/12/19 09:40:23;;;;;;;18.40;11.17;;;1.90;99.90;;;;;;5070432;28;20486;-52
2020/12/19 09:42:50;;;;;;;20.67;9.67;;;2.00;99.90;;;;;;5070906;28;20972;-52
2020/12/19 09:45:16;;;;;;;20.83;10.47;;;2.10;99.90;;;;;;5070484;28;20458;-52
2020/12/19 09:47:43;;;;;;;27.03;10.20;;;2.20;99.90;;;;;;5070605;28;20533;-52
2020/12/19 09:50:10;;;;;;;20.60;10.50;;;2.20;99.90;;;;;;5065475;28;20459;-52
2020/12/19 09:52:38;;;;;;;21.70;10.43;;;2.10;99.90;;;;;;5066934;28;20461;-53
2020/12/19 09:55:06;;;;;;;16.80;9.47;;;2.20;99.90;;;;;;5069775;28;20459;-52
2020/12/19 09:57:33;;;;;;;24.23;10.50;;;2.40;99.90;;;;;;5070775;28;20466;-52
2020/12/19 10:00:00;;;;;;;17.03;9.57;;;2.30;99.90;;;;;;5070654;28;21045;-52
2020/12/19 10:02:26;;;;;;;19.30;10.20;;;2.40;99.90;;;;;;5070130;28;20826;-52
2020/12/19 10:04:53;;;;;;;18.20;9.67;;;2.50;99.90;;;;;;5070114;28;20426;-52
2020/12/19 10:07:19;;;;;;;34.47;15.17;;;2.30;99.90;;;;;;5070700;28;20467;-53
2020/12/19 10:09:47;;;;;;;36.87;16.80;;;2.30;99.90;;;;;;5051087;28;20497;-53
2020/12/19 10:12:13;;;;;;;26.97;14.20;;;1.90;99.90;;;;;;5059405;28;20450;-52
2020/12/19 10:14:40;;;;;;;25.33;11.97;;;1.80;99.90;;;;;;5070501;28;20454;-52
2020/12/19 10:17:06;;;;;;;20.30;11.00;;;2.00;99.90;;;;;;5069930;28;20496;-52
2020/12/19 10:19:33;;;;;;;27.33;12.07;;;2.10;99.90;;;;;;5066839;28;20487;-52
2020/12/19 10:21:59;;;;;;;25.47;11.10;;;2.20;99.90;;;;;;5070444;28;20505;-52
2020/12/19 10:24:26;;;;;;;23.47;12.23;;;2.30;99.90;;;;;;5070432;28;20499;-53
2020/12/19 10:26:53;;;;;;;24.03;11.60;;;2.10;99.90;;;;;;5070400;28;20944;-52
2020/12/19 10:29:20;;;;;;;27.83;12.00;;;2.20;99.90;;;;;;5054167;28;20475;-53
2020/12/19 10:31:46;;;;;;;23.80;11.47;;;2.40;99.90;;;;;;5070028;28;20500;-52
2020/12/19 10:34:13;;;;;;;23.27;12.00;;;2.20;99.90;;;;;;5068352;28;20450;-52
2020/12/19 10:36:39;;;;;;;24.93;11.53;;;2.20;99.90;;;;;;5069985;28;20454;-52
2020/12/19 10:39:06;;;;;;;33.00;13.57;;;2.10;99.90;;;;;;5070015;28;20532;-52
2020/12/19 10:41:33;;;;;;;22.73;11.50;;;2.10;99.90;;;;;;5069555;28;20458;-52
2020/12/19 10:44:03;;;;;;;26.77;12.70;;;2.10;99.90;;;;;;5069784;28;20880;-53
2020/12/19 10:46:31;;;;;;;28.70;12.93;;;2.30;99.90;;;;;;5070674;28;20450;-52
2020/12/19 10:48:57;;;;;;;25.33;12.93;;;2.30;99.90;;;;;;5059483;28;21048;-53
2020/12/19 10:51:27;;;;;;;21.90;12.10;;;2.30;99.90;;;;;;5070602;28;20862;-52
2020/12/19 10:53:54;;;;;;;30.23;13.40;;;2.40;99.90;;;;;;5065651;28;20509;-52
2020/12/19 10:56:21;;;;;;;31.03;13.57;;;2.50;99.90;;;;;;5070067;28;20443;-52
2020/12/19 10:58:47;;;;;;;27.70;13.47;;;2.50;99.90;;;;;;5069944;28;20478;-52
2020/12/19 11:01:15;;;;;;;28.50;12.93;;;2.50;99.90;;;;;;5070757;28;20447;-52
2020/12/19 11:03:42;;;;;;;28.00;12.90;;;2.50;99.90;;;;;;5059334;28;20454;-52
2020/12/19 11:06:17;;;;;;;25.53;12.70;;;2.30;99.90;;;;;;5067584;28;20984;-52
2020/12/19 11:08:43;;;;;;;23.00;12.63;;;2.20;99.90;;;;;;5069593;28;20462;-52
2020/12/19 11:11:10;;;;;;;27.43;13.00;;;2.40;99.90;;;;;;5066321;28;20960;-52
2020/12/19 11:13:36;;;;;;;26.77;12.73;;;2.60;99.90;;;;;;5067588;28;20836;-52
2020/12/19 11:16:03;;;;;;;22.60;11.20;;;2.50;99.90;;;;;;5068509;28;21140;-52
2020/12/19 11:18:30;;;;;;;23.80;13.53;;;2.50;99.90;;;;;;5066693;28;20462;-52
2020/12/19 11:20:56;;;;;;;30.97;13.23;;;2.20;99.90;;;;;;5073600;28;20479;-52
2020/12/19 11:23:23;;;;;;;26.63;12.50;;;2.30;99.90;;;;;;5074037;28;20449;-52
2020/12/19 11:25:53;;;;;;;23.53;12.33;;;2.50;99.90;;;;;;5073548;28;20478;-52
2020/12/19 11:28:20;;;;;;;24.07;13.10;;;2.60;99.90;;;;;;5072752;28;20497;-52
2020/12/19 11:30:46;;;;;;;24.33;12.57;;;2.60;99.90;;;;;;5073179;28;20454;-52
2020/12/19 11:33:13;;;;;;;22.30;11.57;;;2.60;99.90;;;;;;5073100;28;20451;-53
2020/12/19 11:35:40;;;;;;;26.10;13.40;;;2.70;99.90;;;;;;5073295;28;20447;-52
2020/12/19 11:38:07;;;;;;;27.03;13.43;;;2.50;99.90;;;;;;5073405;28;20497;-52
2020/12/19 11:40:34;;;;;;;28.03;13.73;;;2.60;99.90;;;;;;5072530;28;21022;-52
2020/12/19 11:43:00;;;;;;;22.03;11.93;;;2.70;99.90;;;;;;5073497;28;20496;-52
2020/12/19 11:45:27;;;;;;;25.20;12.67;;;2.80;99.90;;;;;;5073624;28;20511;-52
2020/12/19 11:47:53;;;;;;;24.60;12.90;;;2.70;99.90;;;;;;5071914;28;20493;-52
2020/12/19 11:50:19;;;;;;;23.47;12.40;;;2.60;99.90;;;;;;5073059;28;20835;-52
2020/12/19 11:52:47;;;;;;;28.67;13.87;;;2.80;99.90;;;;;;5070011;28;20474;-51
2020/12/19 11:55:14;;;;;;;22.77;12.60;;;2.80;99.90;;;;;;5070843;28;20464;-53
2020/12/19 11:57:40;;;;;;;24.47;12.87;;;2.70;99.90;;;;;;5070676;28;20528;-52
2020/12/19 12:00:07;;;;;;;25.17;13.50;;;2.70;99.90;;;;;;5073001;28;20477;-52
2020/12/19 12:02:33;;;;;;;24.17;12.40;;;2.60;99.90;;;;;;5073310;28;20477;-52
2020/12/19 12:05:00;;;;;;;29.20;14.53;;;2.60;99.90;;;;;;5072820;28;20809;-52
2020/12/19 12:07:26;;;;;;;29.00;14.10;;;2.80;99.90;;;;;;5072159;28;20572;-52
2020/12/19 12:10:01;;;;;;;24.97;12.57;;;2.80;99.90;;;;;;5071872;28;20438;-51
2020/12/19 12:12:28;;;;;;;25.50;13.60;;;3.00;99.90;;;;;;5072789;28;20438;-52
2020/12/19 12:14:54;;;;;;;24.50;12.80;;;3.00;99.90;;;;;;5072342;28;20867;-52
2020/12/19 12:17:21;;;;;;;28.70;13.87;;;3.10;99.90;;;;;;5065862;28;20478;-52
2020/12/19 12:19:47;;;;;;;26.47;14.00;;;3.10;99.90;;;;;;5072548;28;20923;-52
2020/12/19 12:22:14;;;;;;;27.87;14.30;;;3.20;99.90;;;;;;5070649;28;20891;-52
2020/12/19 12:24:40;;;;;;;28.80;17.70;;;3.20;99.90;;;;;;5086000;28;20459;-51
2020/12/19 12:27:07;;;;;;;25.77;14.40;;;3.20;99.90;;;;;;5068514;28;20213;-51
2020/12/19 12:29:34;;;;;;;28.20;16.00;;;3.20;99.90;;;;;;5071293;28;20861;-52
2020/12/19 12:32:01;;;;;;;26.77;14.63;;;3.10;99.90;;;;;;5076926;28;20446;-51
2020/12/19 12:34:28;;;;;;;34.37;14.57;;;3.20;99.90;;;;;;5083860;28;20455;-52
2020/12/19 12:36:54;;;;;;;24.90;12.67;;;3.40;99.90;;;;;;5072504;28;20450;-52
2020/12/19 12:39:21;;;;;;;28.47;14.10;;;3.30;99.90;;;;;;5075966;28;20478;-52
2020/12/19 12:41:47;;;;;;;26.73;13.80;;;3.30;99.90;;;;;;5072390;28;20460;-52
2020/12/19 12:44:15;;;;;;;26.83;13.20;;;3.30;99.90;;;;;;5072318;28;20447;-52
2020/12/19 12:46:41;;;;;;;30.23;14.00;;;3.30;99.90;;;;;;5072250;28;20475;-53
2020/12/19 12:49:08;;;;;;;26.03;13.73;;;3.40;99.90;;;;;;5071973;28;20463;-52
2020/12/19 12:51:34;;;;;;;31.80;15.30;;;3.40;99.90;;;;;;5072412;28;20447;-53
2020/12/19 12:54:03;;;;;;;33.17;15.93;;;3.30;99.90;;;;;;5072333;28;20450;-53
2020/12/19 12:56:29;;;;;;;34.23;16.60;;;3.30;99.90;;;;;;5072313;28;20447;-52